Geroi Shipki — EOIB — position and weather

sailwx.info

Track history (hours):
 
Tides and Currents Weather Stations Pressure Air Temp Water Temp Dewpoint Dewpoint Depression Visibility Wind Speed Wind Dir Waves Ship Positions

Geroi Shipki

Last reported at 2014-Nov-22 18:10 UTC. Time now 2014-Nov-23 07:30 UTC.
Position N 43°48' E 034°58'.

Length 184 m; draft 7 m.

Type: Cargo ship. MMSI: 272976000.

Date/timePositionNaut miles runAvg speedWind from/ knotsBaromVisibWave heightAir tempDewpointWater temp
2014-Nov-22 18:10N 43°48' E 034°58'19 5.1
2014-Nov-22 14:21N 43°54' E 034°32'4 4.8
2014-Nov-22 13:31N 43°55' E 034°27'5 4.8
2014-Nov-22 12:32N 43°57' E 034°20'10 4.9
2014-Nov-22 10:33N 43°60' E 034°08'7 5.5
2014-Nov-22 09:20N 44°02' E 033°59'5 6.2
2014-Nov-22 08:33N 44°04' E 033°53'48 6.8
2014-Nov-22 01:29N 44°35' E 033°02'  
2014-Nov-19 21:11N 46°19' E 030°40'0 0.0
2014-Nov-19 20:33N 46°19' E 030°40'  
2014-Nov-15 23:17N 45°57' E 031°23'154 7.6
2014-Nov-15 03:06N 44°07' E 033°54'5 9.2
2014-Nov-15 02:33N 44°05' E 034°01'9 8.9
2014-Nov-15 01:29N 44°02' E 034°13'8 8.3
2014-Nov-15 00:33N 43°60' E 034°24'8 7.9
2014-Nov-14 23:32N 43°57' E 034°34'10 7.9
2014-Nov-14 22:17N 43°54' E 034°47'6 7.9
2014-Nov-14 21:31N 43°51' E 034°55'26 8.1
2014-Nov-14 18:14N 43°42' E 035°29'56 8.2
2014-Nov-14 11:23N 43°24' E 036°42'8 8.1
2014-Nov-14 10:26N 43°21' E 036°52'23 8.1
2014-Nov-14 07:33N 43°13' E 037°22'8 8.0
2014-Nov-14 06:32N 43°11' E 037°33'11 8.3
2014-Nov-14 05:12N 43°06' E 037°47'  
Track history (hours):
 
Tides and Currents Weather Stations Pressure Air Temp Water Temp Dewpoint Dewpoint Depression Visibility Wind Speed Wind Dir Waves Ship Positions

Geroi Shipki

Last reported at 2014-Nov-22 18:10 UTC. Time now 2014-Nov-23 07:30 UTC.
Position N 43°48' E 034°58'.

Length 184 m; draft 7 m.

Type: Cargo ship. MMSI: 272976000.

Date/timePositionNaut miles runAvg speedWind from/ knotsBaromVisibWave heightAir tempDewpointWater temp
2014-Nov-22 18:10N 43°48' E 034°58'19 5.1
2014-Nov-22 14:21N 43°54' E 034°32'4 4.8
2014-Nov-22 13:31N 43°55' E 034°27'5 4.8
2014-Nov-22 12:32N 43°57' E 034°20'10 4.9
2014-Nov-22 10:33N 43°60' E 034°08'7 5.5
2014-Nov-22 09:20N 44°02' E 033°59'5 6.2
2014-Nov-22 08:33N 44°04' E 033°53'48 6.8
2014-Nov-22 01:29N 44°35' E 033°02'  
2014-Nov-19 21:11N 46°19' E 030°40'0 0.0
2014-Nov-19 20:33N 46°19' E 030°40'  
2014-Nov-15 23:17N 45°57' E 031°23'154 7.6
2014-Nov-15 03:06N 44°07' E 033°54'5 9.2
2014-Nov-15 02:33N 44°05' E 034°01'9 8.9
2014-Nov-15 01:29N 44°02' E 034°13'8 8.3
2014-Nov-15 00:33N 43°60' E 034°24'8 7.9
2014-Nov-14 23:32N 43°57' E 034°34'10 7.9
2014-Nov-14 22:17N 43°54' E 034°47'6 7.9
2014-Nov-14 21:31N 43°51' E 034°55'26 8.1
2014-Nov-14 18:14N 43°42' E 035°29'56 8.2
2014-Nov-14 11:23N 43°24' E 036°42'8 8.1
2014-Nov-14 10:26N 43°21' E 036°52'23 8.1
2014-Nov-14 07:33N 43°13' E 037°22'8 8.0
2014-Nov-14 06:32N 43°11' E 037°33'11 8.3
2014-Nov-14 05:12N 43°06' E 037°47'  

Dump ship's entire track history